Hub


Voltar

 INFORMAÇÕES METEOROLÓGICAS

METAR FOR LBSF


ADDS - METARS form results

(0753 UTC 25 August 2019)
Data provider http://aviationweather.gov/metar/data/
 
METAR text: LBSF 250730Z 10005KT 060V130 CAVOK 26/14 Q1021 NOSIG
Conditions at: LBSF (SOFIA , BG) observed 0730 UTC 25 August 2019
Temperature: 26.0°C (79°F)
Dewpoint: 14.0°C (57°F) [RH = 48%]
Pressure (altimeter): 30.15 inches Hg (1021.0 mb)
Winds: from the E (100 degrees) at 6 MPH (5 knots; 2.6 m/s)
Visibility: 6 or more miles (10+ km)
Ceiling: ceiling and visibility are OK
Clouds: unknown
Weather: no significant weather observed at this time

METAR text: LBSF 250700Z 10005KT 070V140 CAVOK 25/14 Q1021 NOSIG
Conditions at: LBSF (SOFIA , BG) observed 0700 UTC 25 August 2019
Temperature: 25.0°C (77°F)
Dewpoint: 14.0°C (57°F) [RH = 50%]
Pressure (altimeter): 30.15 inches Hg (1021.0 mb)
Winds: from the E (100 degrees) at 6 MPH (5 knots; 2.6 m/s)
Visibility: 6 or more miles (10+ km)
Ceiling: ceiling and visibility are OK
Clouds: unknown
Weather: no significant weather observed at this time

Forecast for: LBSF (SOFIA , BG)
Text: TAF LBSF 250500Z 2506/2606 09012KT CAVOK
Forecast period: 0600 to 1900 UTC 25 August 2019
Forecast type: FROM: standard forecast or significant change
Winds: from the E (90 degrees) at 14 MPH (12 knots; 6.2 m/s)
Visibility: 6 or more miles 10+ km)
Ceiling: unknown
Clouds: missing
Weather: NSW  (no significant weather)
Text: BECMG 2519/2521 VRB04KT
Forecast period: 1900 UTC 25 August 2019 to 0600 UTC 26 August 2019
Forecast type: BECOMING: Conditions expected to become as follows by 2100 UTC 25 August 2019
Winds: variable direction winds at 5 MPH (4 knots; 2.1 m/s)
Visibility: 6 or more miles 10+ km)
Ceiling: unknown
Clouds: missing
Weather: NSW  (no significant weather)


 MAPA DO AEROPORTO


 INFORMAÇÕES DA PISTA

Pista 09 Tamanho da pista 9186 ft Largura da pista 147 ft
Elevação da pista 1739 ft Ranhura da pista 0 ft Proa da pista 95
Pista 27 Tamanho da pista 9186 ft Largura da pista 147 ft
Elevação da pista 1742 ft Ranhura da pista 0 ft Proa da pista 275

 FREQUÊNCIAS DO AEROPORTO

Tipo APP Nome APP Frequência 123.7 MHZ
Tipo ATIS Nome ATIS Frequência 124.05 MHZ
Tipo TWR Nome TWR Frequência 118.1 MHZ

 AUXÍLIOS DE NAVEGAÇÃO PRÓXIMOS AO AEROPORTO

Tipo NDB Nome Bozhourishte Frequência 312 KHZ
Tipo NDB Nome Sofia Frequência 375 KHZ
Tipo NDB Nome Sofia Frequência 335 KHZ
Tipo NDB Nome Sofia Frequência 529 KHZ
Tipo VOR-DME Nome Sofia Frequência 112600 KHZ
Tipo NDB Nome Sofia Frequência 350 KHZ